Time;durP1;ratioP1;P1;durP2;ratioP2;P2;SDS_P1;SDS_P2;PMS_P1;PMS_P2;Temp;Humidity;BMP_temperature;BMP_pressure;BME280_temperature;BME280_humidity;BME280_pressure;Samples;Min_cycle;Max_cycle;Signal;HPM_P1;HPM_P2
2022/04/10 00:01:11;;;;;;;;;;;-1.30;99.90;;;;;;5105003;28;20038;-81
2022/04/10 00:03:38;;;;;;;;;;;-1.40;99.90;;;;;;5102774;28;19931;-82
2022/04/10 00:06:05;;;;;;;;;;;-1.40;99.90;;;;;;5099929;28;20013;-83
2022/04/10 00:08:48;;;;;;;;;;;-1.40;99.90;;;;;;5104761;28;19946;-83
2022/04/10 00:11:14;;;;;;;;;;;-1.50;99.90;;;;;;5103655;28;19930;-82
2022/04/10 00:13:41;;;;;;;;;;;-1.60;99.90;;;;;;5086768;28;19924;-83
2022/04/10 00:16:08;;;;;;;;;;;-1.60;99.90;;;;;;5085730;28;19924;-82
2022/04/10 00:18:36;;;;;;;;;;;-1.70;99.90;;;;;;5098354;28;19965;-83
2022/04/10 00:21:04;;;;;;;;;;;-1.70;99.90;;;;;;5102664;28;19947;-82
2022/04/10 00:23:33;;;;;;;;;;;-1.70;99.90;;;;;;5097886;28;19928;-82
2022/04/10 00:26:00;;;;;;;;;;;-1.80;99.90;;;;;;5113763;28;20386;-83
2022/04/10 00:28:27;;;;;;;;;;;-1.80;99.90;;;;;;5112470;28;20504;-83
2022/04/10 00:30:53;;;;;;;;;;;-1.90;99.90;;;;;;5088925;28;19963;-83
2022/04/10 00:33:20;;;;;;;;;;;-1.90;99.90;;;;;;5109088;28;19935;-82
2022/04/10 00:35:48;;;;;;;;;;;-1.90;99.90;;;;;;5096087;28;20019;-83
2022/04/10 00:38:15;;;;;;;;;;;-1.90;99.90;;;;;;5078850;28;20014;-83
2022/04/10 00:40:45;;;;;;;;;;;-1.90;99.90;;;;;;5105547;28;19931;-83
2022/04/10 00:43:11;;;;;;;;;;;-1.90;99.90;;;;;;5127585;28;19979;-83
2022/04/10 00:45:40;;;;;;;;;;;-1.90;99.90;;;;;;5117835;28;19908;-83
2022/04/10 00:48:10;;;;;;;;;;;-1.90;99.90;;;;;;5127683;28;19992;-84
2022/04/10 00:51:39;;;;;;;;;;;-2.00;99.90;;;;;;5121255;28;20420;-84
2022/04/10 00:53:31;;;;;;;;;;;-2.00;99.90;;;;;;5094202;28;20014;-84
2022/04/10 00:56:00;;;;;;;;;;;-2.10;99.90;;;;;;5088537;28;19968;-84
2022/04/10 00:58:27;;;;;;;;;;;-2.10;99.90;;;;;;5103175;28;19970;-83
2022/04/10 01:00:54;;;;;;;;;;;-2.20;99.90;;;;;;5080989;28;20429;-83
2022/04/10 01:03:21;;;;;;;;;;;-2.20;99.90;;;;;;5080572;28;20046;-85
2022/04/10 01:05:48;;;;;;;;;;;-2.20;99.90;;;;;;5099265;28;19928;-83
2022/04/10 01:08:15;;;;;;;;;;;-2.20;99.90;;;;;;5111519;28;19998;-83
2022/04/10 01:10:42;;;;;;;;;;;-2.20;99.90;;;;;;5109919;28;20010;-84
2022/04/10 01:13:09;;;;;;;;;;;-2.20;99.90;;;;;;5100615;28;19924;-84
2022/04/10 01:15:36;;;;;;;;;;;-2.30;99.90;;;;;;5096586;28;19993;-85
2022/04/10 01:18:06;;;;;;;;;;;-2.30;99.90;;;;;;5093408;28;19930;-85
2022/04/10 01:20:33;;;;;;;;;;;-2.30;99.90;;;;;;5104132;28;19924;-85
2022/04/10 01:23:00;;;;;;;;;;;-2.30;99.90;;;;;;5109652;28;21311;-85
2022/04/10 01:25:28;;;;;;;;;;;-2.40;99.90;;;;;;5098029;28;20016;-85
2022/04/10 01:27:57;;;;;;;;;;;-2.40;99.90;;;;;;5085498;28;20459;-85
2022/04/10 01:30:24;;;;;;;;;;;-2.40;99.90;;;;;;5087190;28;20028;-85
2022/04/10 01:32:50;;;;;;;;;;;-2.40;99.90;;;;;;5105835;28;19927;-85
2022/04/10 01:35:17;;;;;;;;;;;-2.30;99.90;;;;;;5105296;28;19932;-86
2022/04/10 01:37:45;;;;;;;;;;;-2.30;99.90;;;;;;5084032;28;19923;-84
2022/04/10 01:40:12;;;;;;;;;;;-2.30;99.90;;;;;;5093888;28;19930;-85
2022/04/10 01:42:38;;;;;;;;;;;-2.40;99.90;;;;;;5096826;28;19924;-84
2022/04/10 01:45:05;;;;;;;;;;;-2.40;99.90;;;;;;5094982;28;20010;-85
2022/04/10 01:47:32;;;;;;;;;;;-2.40;99.90;;;;;;5104671;28;20026;-84
2022/04/10 01:49:59;;;;;;;;;;;-2.40;99.90;;;;;;5084002;28;20394;-86
2022/04/10 01:52:25;;;;;;;;;;;-2.40;99.90;;;;;;5104960;28;19931;-85
2022/04/10 01:54:54;;;;;;;;;;;-2.40;99.90;;;;;;5112728;28;19930;-87
2022/04/10 01:57:21;;;;;;;;;;;-2.40;99.90;;;;;;5100627;28;19931;-86
2022/04/10 01:59:48;;;;;;;;;;;-2.40;99.90;;;;;;5086913;28;20374;-86
2022/04/10 02:02:15;;;;;;;;;;;-2.50;99.90;;;;;;5105998;28;19977;-85
2022/04/10 02:04:42;;;;;;;;;;;-2.50;99.90;;;;;;5078119;28;20312;-86
2022/04/10 02:07:08;;;;;;;;;;;-2.50;99.90;;;;;;5097394;28;19930;-86
2022/04/10 02:09:39;;;;;;;;;;;-2.60;99.90;;;;;;5076408;28;19968;-86
2022/04/10 02:12:09;;;;;;;;;;;-2.60;99.90;;;;;;5087907;28;20018;-84
2022/04/10 02:14:35;;;;;;;;;;;-2.60;99.90;;;;;;5106843;28;20023;-86
2022/04/10 02:17:02;;;;;;;;;;;-2.70;99.90;;;;;;5107336;28;19924;-85
2022/04/10 02:19:29;;;;;;;;;;;-2.80;99.90;;;;;;5107069;28;20382;-87
2022/04/10 02:21:57;;;;;;;;;;;-2.80;99.90;;;;;;5111737;28;19966;-85
2022/04/10 02:24:24;;;;;;;;;;;-2.80;99.90;;;;;;5091217;28;19970;-86
2022/04/10 02:26:50;;;;;;;;;;;-2.90;99.90;;;;;;5101856;28;19924;-86
2022/04/10 02:29:17;;;;;;;;;;;-2.90;99.90;;;;;;5088533;28;20011;-86
2022/04/10 02:31:44;;;;;;;;;;;-3.00;99.90;;;;;;5099351;28;19920;-85
2022/04/10 02:34:10;;;;;;;;;;;-3.00;99.90;;;;;;5096189;28;19920;-84
2022/04/10 02:36:37;;;;;;;;;;;-3.00;99.90;;;;;;5113993;28;20014;-84
2022/04/10 02:39:04;;;;;;;;;;;-3.00;99.90;;;;;;5079492;28;19931;-85
2022/04/10 02:41:30;;;;;;;;;;;-2.90;99.90;;;;;;5104825;28;20010;-85
2022/04/10 02:43:57;;;;;;;;;;;-2.90;99.90;;;;;;5084091;28;20012;-85
2022/04/10 02:46:24;;;;;;;;;;;-2.90;99.90;;;;;;5090171;28;19920;-84
2022/04/10 02:48:50;;;;;;;;;;;-2.90;99.90;;;;;;5091819;28;19932;-84
2022/04/10 02:51:17;;;;;;;;;;;-3.00;99.90;;;;;;5107205;28;19924;-84
2022/04/10 02:53:44;;;;;;;;;;;-3.00;99.90;;;;;;5087211;28;20002;-83
2022/04/10 02:56:11;;;;;;;;;;;-3.00;99.90;;;;;;5082496;28;20446;-83
2022/04/10 02:58:37;;;;;;;;;;;-3.10;99.90;;;;;;5102351;28;20018;-83
2022/04/10 03:01:04;;;;;;;;;;;-3.10;99.90;;;;;;5086645;28;19919;-82
2022/04/10 03:03:33;;;;;;;;;;;-3.10;99.90;;;;;;5090751;28;19927;-82
2022/04/10 03:06:00;;;;;;;;;;;-3.00;99.90;;;;;;5110311;28;19990;-82
2022/04/10 03:08:28;;;;;;;;;;;-2.90;99.90;;;;;;5079545;28;20063;-83
2022/04/10 03:10:57;;;;;;;;;;;-2.80;99.90;;;;;;5084532;28;19946;-83
2022/04/10 03:13:26;;;;;;;;;;;-2.80;99.90;;;;;;5100214;28;19919;-83
2022/04/10 03:15:52;;;;;;;;;;;-2.70;99.90;;;;;;5081447;28;19920;-83
2022/04/10 03:18:19;;;;;;;;;;;-2.70;99.90;;;;;;5107546;28;19926;-83
2022/04/10 03:20:46;;;;;;;;;;;-2.70;99.90;;;;;;5102924;28;20006;-83
2022/04/10 03:23:13;;;;;;;;;;;-2.80;99.90;;;;;;5113686;28;19920;-83
2022/04/10 03:25:40;;;;;;;;;;;-2.90;99.90;;;;;;5092040;28;20441;-83
2022/04/10 03:28:06;;;;;;;;;;;-3.00;99.90;;;;;;5099643;28;20026;-82
2022/04/10 03:30:33;;;;;;;;;;;-3.10;99.90;;;;;;5108899;28;19924;-83
2022/04/10 03:33:00;;;;;;;;;;;-3.10;99.90;;;;;;5089138;28;19955;-82
2022/04/10 03:35:26;;;;;;;;;;;-3.20;99.90;;;;;;5095571;28;20335;-82
2022/04/10 03:37:53;;;;;;;;;;;-3.30;99.90;;;;;;5099454;28;19920;-82
2022/04/10 03:40:19;;;;;;;;;;;-3.30;99.90;;;;;;5101315;28;19926;-82
2022/04/10 03:42:48;;;;;;;;;;;-3.30;99.90;;;;;;5083458;28;19969;-81
2022/04/10 03:45:14;;;;;;;;;;;-3.30;99.90;;;;;;5095486;28;19924;-80
2022/04/10 03:47:41;;;;;;;;;;;-3.20;99.90;;;;;;5101736;28;20286;-81
2022/04/10 03:50:08;;;;;;;;;;;-3.20;99.90;;;;;;5082586;28;20022;-79
2022/04/10 03:52:34;;;;;;;;;;;-3.30;99.90;;;;;;5082550;28;19926;-79
2022/04/10 03:55:02;;;;;;;;;;;-3.30;99.90;;;;;;5091905;28;19926;-79
2022/04/10 03:57:28;;;;;;;;;;;-3.30;99.90;;;;;;5104281;28;19989;-79
2022/04/10 03:59:55;;;;;;;;;;;-3.30;99.90;;;;;;5109004;28;19971;-79
2022/04/10 04:02:22;;;;;;;;;;;-3.40;99.90;;;;;;5088857;28;19984;-79
2022/04/10 04:04:50;;;;;;;;;;;-3.40;99.90;;;;;;5092924;28;19926;-79
2022/04/10 04:07:17;;;;;;;;;;;-3.40;99.90;;;;;;5105582;27;19970;-79
2022/04/10 04:09:44;;;;;;;;;;;-3.40;99.90;;;;;;5088200;28;20398;-78
2022/04/10 04:12:11;;;;;;;;;;;-3.40;99.90;;;;;;5108918;28;20010;-78
2022/04/10 04:14:38;;;;;;;;;;;-3.40;99.90;;;;;;5080616;28;19930;-78
2022/04/10 04:17:04;;;;;;;;;;;-3.40;99.90;;;;;;5085349;28;19920;-78
2022/04/10 04:19:31;;;;;;;;;;;-3.20;99.90;;;;;;5094713;28;19993;-78
2022/04/10 04:21:58;;;;;;;;;;;-3.10;99.90;;;;;;5105532;28;19978;-79
2022/04/10 04:24:25;;;;;;;;;;;-2.90;99.90;;;;;;5110654;28;20434;-79
2022/04/10 04:26:56;;;;;;;;;;;-2.60;99.90;;;;;;5094672;28;19923;-77
2022/04/10 04:29:22;;;;;;;;;;;-2.50;99.90;;;;;;5088799;28;20018;-78
2022/04/10 04:31:49;;;;;;;;;;;-2.50;99.90;;;;;;5101767;28;19978;-78
2022/04/10 04:34:17;;;;;;;;;;;-2.50;99.90;;;;;;5113559;28;19920;-78
2022/04/10 04:36:46;;;;;;;;;;;-2.60;99.90;;;;;;5095388;28;19924;-77
2022/04/10 04:39:13;;;;;;;;;;;-2.60;99.90;;;;;;5102439;28;19919;-77
2022/04/10 04:41:45;;;;;;;;;;;-2.70;99.90;;;;;;5110312;28;19930;-77
2022/04/10 04:44:12;;;;;;;;;;;-2.80;99.90;;;;;;5075826;28;19927;-77
2022/04/10 04:46:39;;;;;;;;;;;-2.80;99.90;;;;;;5076262;28;19919;-77
2022/04/10 04:49:06;;;;;;;;;;;-2.80;99.90;;;;;;5086184;28;19942;-77
2022/04/10 04:51:34;;;;;;;;;;;-2.90;99.90;;;;;;5101844;28;20014;-76
2022/04/10 04:54:04;;;;;;;;;;;-2.90;99.90;;;;;;5112536;28;20018;-76
2022/04/10 04:56:31;;;;;;;;;;;-2.80;99.90;;;;;;5108956;28;19920;-76
2022/04/10 04:58:58;;;;;;;;;;;-2.80;99.90;;;;;;5080382;28;19930;-76
2022/04/10 05:01:24;;;;;;;;;;;-2.90;99.90;;;;;;5109987;28;19926;-76
2022/04/10 05:03:51;;;;;;;;;;;-2.90;99.90;;;;;;5102662;28;19920;-76
2022/04/10 05:06:18;;;;;;;;;;;-2.90;99.90;;;;;;5089026;28;19931;-76
2022/04/10 05:08:48;;;;;;;;;;;-2.80;99.90;;;;;;5089777;28;20588;-77
2022/04/10 05:13:15;;;;;;;;;;;-2.70;99.90;;;;;;5062319;27;19924;-74
2022/04/10 05:15:42;;;;;;;;;;;-2.40;99.90;;;;;;5086305;28;19932;-74
2022/04/10 05:18:09;;;;;;;;;;;-2.40;99.90;;;;;;5093787;28;19931;-74
2022/04/10 05:20:37;;;;;;;;;;;-2.20;99.90;;;;;;5091708;28;20297;-74
2022/04/10 05:23:04;;;;;;;;;;;-2.00;99.90;;;;;;5079333;28;19933;-75
2022/04/10 05:25:30;;;;;;;;;;;-1.70;99.90;;;;;;5084013;28;20371;-74
2022/04/10 05:27:57;;;;;;;;;;;-1.50;99.90;;;;;;5079251;28;20189;-74
2022/04/10 05:30:24;;;;;;;;;;;-1.30;99.90;;;;;;5083227;28;19928;-74
2022/04/10 05:32:50;;;;;;;;;;;-1.10;99.90;;;;;;5083797;28;20011;-74
2022/04/10 05:35:17;;;;;;;;;;;-0.90;99.90;;;;;;5079979;28;19930;-74
2022/04/10 05:37:43;;;;;;;;;;;-0.90;99.90;;;;;;5118097;27;19924;-74
2022/04/10 05:40:10;;;;;;;;;;;-0.80;99.90;;;;;;5081465;28;19939;-74
2022/04/10 05:42:38;;;;;;;;;;;-0.70;99.90;;;;;;5085940;28;20011;-74
2022/04/10 05:45:05;;;;;;;;;;;-0.70;99.90;;;;;;5078405;28;19924;-74
2022/04/10 05:47:32;;;;;;;;;;;-0.60;99.90;;;;;;5080547;28;19927;-74
2022/04/10 05:49:58;;;;;;;;;;;-0.60;99.90;;;;;;5073782;28;20302;-74
2022/04/10 05:52:25;;;;;;;;;;;-0.60;99.90;;;;;;5079840;28;19964;-74
2022/04/10 05:54:52;;;;;;;;;;;-0.50;99.90;;;;;;5082508;28;20367;-74
2022/04/10 05:57:18;;;;;;;;;;;-0.50;99.90;;;;;;5075041;28;19927;-74
2022/04/10 05:59:45;;;;;;;;;;;-0.40;99.90;;;;;;5074887;28;20375;-74
2022/04/10 06:02:12;;;;;;;;;;;-0.30;99.90;;;;;;5083551;28;19920;-74
2022/04/10 06:04:41;;;;;;;;;;;-0.20;99.90;;;;;;5077815;28;19927;-74
2022/04/10 06:07:07;;;;;;;;;;;-0.10;99.90;;;;;;5084514;28;19920;-74
2022/04/10 06:09:36;;;;;;;;;;;0.00;99.90;;;;;;5082176;28;19942;-74
2022/04/10 06:12:03;;;;;;;;;;;0.10;99.90;;;;;;5084005;28;19928;-74
2022/04/10 06:14:29;;;;;;;;;;;0.10;99.90;;;;;;5076816;28;19921;-74
2022/04/10 06:16:56;;;;;;;;;;;0.10;99.90;;;;;;5082273;28;19924;-74
2022/04/10 06:19:23;;;;;;;;;;;0.20;99.90;;;;;;5080218;28;20341;-75
2022/04/10 06:21:49;;;;;;;;;;;0.40;99.90;;;;;;5079312;28;19928;-74
2022/04/10 06:24:16;;;;;;;;;;;0.40;99.90;;;;;;5071597;28;20491;-74
2022/04/10 06:26:44;;;;;;;;;;;0.40;99.90;;;;;;5065922;28;19932;-74
2022/04/10 06:29:14;;;;;;;;;;;0.60;99.90;;;;;;5071526;28;19920;-74
2022/04/10 06:31:44;;;;;;;;;;;0.60;99.90;;;;;;5065452;28;19920;-74
2022/04/10 06:34:14;;;;;;;;;;;0.70;99.90;;;;;;5071166;28;20355;-74
2022/04/10 06:36:41;;;;;;;;;;;0.80;99.90;;;;;;5064972;28;20015;-74
2022/04/10 06:39:12;;;;;;;;;;;0.80;99.90;;;;;;5072530;28;19920;-74
2022/04/10 06:41:38;;;;;;;;;;;1.00;99.90;;;;;;5069192;28;20379;-74
2022/04/10 06:44:05;;;;;;;;;;;1.10;99.90;;;;;;5065051;28;19924;-74
2022/04/10 06:46:32;;;;;;;;;;;1.30;99.90;;;;;;5067299;28;19927;-74
2022/04/10 06:48:58;;;;;;;;;;;1.60;99.90;;;;;;5059616;28;20088;-74
2022/04/10 06:51:25;;;;;;;;;;;1.60;99.90;;;;;;5062350;28;19927;-74
2022/04/10 06:53:52;;;;;;;;;;;1.90;99.90;;;;;;5069706;28;19927;-75
2022/04/10 06:56:18;;;;;;;;;;;2.00;99.90;;;;;;5066658;28;19920;-75
2022/04/10 06:58:45;;;;;;;;;;;2.20;99.90;;;;;;5060961;28;20430;-75
2022/04/10 07:01:12;;;;;;;;;;;2.40;99.90;;;;;;5092597;28;19931;-75
2022/04/10 07:03:39;;;;;;;;;;;2.70;99.90;;;;;;5065390;28;19930;-75
2022/04/10 07:06:06;;;;;;;;;;;3.00;99.90;;;;;;5065872;28;19928;-75
2022/04/10 07:08:33;;;;;;;;;;;3.00;99.90;;;;;;5061060;28;19929;-75
2022/04/10 07:10:59;;;;;;;;;;;3.00;99.90;;;;;;5066675;28;21137;-75
2022/04/10 07:13:26;;;;;;;;;;;3.30;99.90;;;;;;5058952;28;19924;-75
2022/04/10 07:15:52;;;;;;;;;;;3.50;99.90;;;;;;5076445;28;19928;-75
2022/04/10 07:18:19;;;;;;;;;;;3.50;99.90;;;;;;5067142;28;19932;-75
2022/04/10 07:20:49;;;;;;;;;;;3.40;99.90;;;;;;5069305;28;20385;-75
2022/04/10 07:26:03;;;;;;;;;;;3.40;99.90;;;;;;5064314;28;20407;-75
2022/04/10 07:28:32;;;;;;;;;;;3.60;99.90;;;;;;5061299;28;19932;-75
2022/04/10 07:31:01;;;;;;;;;;;3.60;99.90;;;;;;5064625;28;20668;-75
2022/04/10 07:33:28;;;;;;;;;;;3.70;99.90;;;;;;5057742;28;19972;-75
2022/04/10 07:35:55;;;;;;;;;;;3.80;99.90;;;;;;5075584;28;19950;-75
2022/04/10 07:38:22;;;;;;;;;;;4.10;99.90;;;;;;5062859;28;19921;-75
2022/04/10 07:40:52;;;;;;;;;;;4.20;99.90;;;;;;5065647;28;20318;-75
2022/04/10 07:43:19;;;;;;;;;;;4.30;99.90;;;;;;5064931;28;19932;-74
2022/04/10 07:48:31;;;;;;;;;;;4.60;99.90;;;;;;5064949;28;20512;-74
2022/04/10 07:50:58;;;;;;;;;;;5.10;99.90;;;;;;5061233;28;21187;-74
2022/04/10 07:53:27;;;;;;;;;;;5.50;99.90;;;;;;5064261;28;19927;-75
2022/04/10 07:55:53;;;;;;;;;;;5.60;99.90;;;;;;5063957;28;20570;-74
2022/04/10 07:58:20;;;;;;;;;;;5.80;99.90;;;;;;5065294;28;19951;-75
2022/04/10 08:00:47;;;;;;;;;;;6.00;99.90;;;;;;5062496;28;19959;-74
2022/04/10 08:03:13;;;;;;;;;;;6.10;99.90;;;;;;5055437;28;19973;-75
2022/04/10 08:05:42;;;;;;;;;;;6.20;99.90;;;;;;5066600;28;19920;-73
2022/04/10 08:08:12;;;;;;;;;;;6.80;99.90;;;;;;5064086;28;19927;-74
2022/04/10 08:10:39;;;;;;;;;;;7.40;99.90;;;;;;5060156;28;19943;-73
2022/04/10 08:13:05;;;;;;;;;;;7.60;99.90;;;;;;5065478;28;20035;-73
2022/04/10 08:15:32;;;;;;;;;;;8.00;99.90;;;;;;5065165;28;20057;-73
2022/04/10 08:17:59;;;;;;;;;;;8.60;99.90;;;;;;5061271;28;19927;-74
2022/04/10 08:20:26;;;;;;;;;;;9.60;99.90;;;;;;5064626;28;20007;-74
2022/04/10 08:22:53;;;;;;;;;;;10.30;99.90;;;;;;5070933;28;19920;-74
2022/04/10 08:25:23;;;;;;;;;;;10.00;99.90;;;;;;5066145;28;19966;-73
2022/04/10 08:27:51;;;;;;;;;;;9.20;99.90;;;;;;5067390;28;19920;-73
2022/04/10 08:30:17;;;;;;;;;;;8.80;99.90;;;;;;5067039;28;19943;-74
2022/04/10 08:32:47;;;;;;;;;;;9.20;99.90;;;;;;5059446;28;19924;-74
2022/04/10 08:35:18;;;;;;;;;;;9.40;99.90;;;;;;5061560;28;19926;-74
2022/04/10 08:37:45;;;;;;;;;;;9.30;99.90;;;;;;5095528;28;19924;-74
2022/04/10 08:40:12;;;;;;;;;;;9.20;99.90;;;;;;5065043;28;19921;-73
2022/04/10 08:42:39;;;;;;;;;;;8.90;99.90;;;;;;5060751;28;19929;-74
2022/04/10 08:45:06;;;;;;;;;;;8.90;99.90;;;;;;5070629;28;20231;-73
2022/04/10 08:47:33;;;;;;;;;;;8.10;99.90;;;;;;5070263;28;19966;-74
2022/04/10 08:50:00;;;;;;;;;;;7.80;99.90;;;;;;5064461;28;19947;-74
2022/04/10 08:52:27;;;;;;;;;;;8.00;99.90;;;;;;5066677;28;19924;-74
2022/04/10 08:54:54;;;;;;;;;;;8.10;99.90;;;;;;5065321;28;19920;-73
2022/04/10 08:57:23;;;;;;;;;;;8.40;99.90;;;;;;5059757;28;20015;-73
2022/04/10 08:59:49;;;;;;;;;;;8.20;99.90;;;;;;5058892;28;19946;-73
2022/04/10 09:02:16;;;;;;;;;;;8.20;99.90;;;;;;5063808;28;19928;-73
2022/04/10 09:04:46;;;;;;;;;;;8.00;99.90;;;;;;5064816;28;19920;-73
2022/04/10 09:07:13;;;;;;;;;;;7.80;99.90;;;;;;5064597;28;20312;-73
2022/04/10 09:09:51;;;;;;;;;;;8.00;99.90;;;;;;5060532;28;19944;-73
2022/04/10 09:12:18;;;;;;;;;;;8.20;99.90;;;;;;5059217;28;19920;-73
2022/04/10 09:14:46;;;;;;;;;;;8.40;99.90;;;;;;5066981;28;19947;-74
2022/04/10 09:17:18;;;;;;;;;;;8.30;99.90;;;;;;5063251;28;19939;-73
2022/04/10 09:19:48;;;;;;;;;;;8.00;99.90;;;;;;5061442;28;19928;-73
2022/04/10 09:22:23;;;;;;;;;;;8.20;99.90;;;;;;5062319;28;19950;-73
2022/04/10 09:25:28;;;;;;;;;;;8.50;99.90;;;;;;5064635;28;19955;-74
2022/04/10 09:27:55;;;;;;;;;;;8.70;99.90;;;;;;5059246;28;19920;-74
2022/04/10 09:30:33;;;;;;;;;;;9.20;99.90;;;;;;5062617;28;20267;-74
2022/04/10 09:32:59;;;;;;;;;;;9.30;99.90;;;;;;5042308;28;19924;-74
2022/04/10 09:35:27;;;;;;;;;;;9.90;99.90;;;;;;5057437;28;19928;-74
2022/04/10 09:37:55;;;;;;;;;;;9.90;99.90;;;;;;5059001;28;19962;-73
2022/04/10 09:40:23;;;;;;;;;;;9.60;99.90;;;;;;5042716;28;19927;-73
2022/04/10 09:42:50;;;;;;;;;;;9.00;99.90;;;;;;5050170;28;20417;-75
2022/04/10 09:45:36;;;;;;;;;;;8.60;99.90;;;;;;5055034;28;19928;-75
2022/04/10 09:48:21;;;;;;;;;;;8.30;99.90;;;;;;5056733;28;19930;-78
2022/04/10 09:50:52;;;;;;;;;;;7.80;99.90;;;;;;5050674;28;19930;-74
2022/04/10 09:53:21;;;;;;;;;;;7.60;99.90;;;;;;5059261;28;19927;-71
2022/04/10 09:55:54;;;;;;;;;;;7.70;99.90;;;;;;5040304;28;20375;-72
2022/04/10 09:58:22;;;;;;;;;;;7.80;99.90;;;;;;5048830;28;19920;-74
2022/04/10 10:00:52;;;;;;;;;;;8.10;99.90;;;;;;5058775;28;19921;-73
2022/04/10 10:03:20;;;;;;;;;;;8.70;99.90;;;;;;5055913;28;20333;-73
2022/04/10 10:05:49;;;;;;;;;;;9.20;99.90;;;;;;5076910;28;19925;-73
2022/04/10 10:08:17;;;;;;;;;;;10.30;99.90;;;;;;5077149;28;19936;-73
2022/04/10 10:10:44;;;;;;;;;;;11.10;99.90;;;;;;5064307;28;20389;-73
2022/04/10 10:13:14;;;;;;;;;;;11.60;99.90;;;;;;5067729;28;19925;-73
2022/04/10 10:15:42;;;;;;;;;;;11.90;99.90;;;;;;5068989;28;20389;-73
2022/04/10 10:18:09;;;;;;;;;;;11.80;99.90;;;;;;5066705;28;19927;-73
2022/04/10 10:20:40;;;;;;;;;;;11.70;99.90;;;;;;5066626;28;19920;-73
2022/04/10 10:23:10;;;;;;;;;;;11.90;99.90;;;;;;5057230;28;19924;-71
2022/04/10 10:25:58;;;;;;;;;;;12.20;99.90;;;;;;5056469;28;20021;-73
2022/04/10 10:28:44;;;;;;;;;;;12.10;99.90;;;;;;5061788;28;21001;-74
2022/04/10 10:31:31;;;;;;;;;;;12.00;99.90;;;;;;5099096;27;19930;-73
2022/04/10 10:34:02;;;;;;;;;;;11.10;99.90;;;;;;5057947;28;19920;-73
2022/04/10 10:36:29;;;;;;;;;;;10.60;99.90;;;;;;5068354;28;19920;-73
2022/04/10 10:38:57;;;;;;;;;;;10.50;99.90;;;;;;5066724;28;19924;-73
2022/04/10 10:41:23;;;;;;;;;;;10.60;99.90;;;;;;5066057;28;20027;-73
2022/04/10 10:43:50;;;;;;;;;;;10.00;99.90;;;;;;5094424;27;19974;-73
2022/04/10 10:46:20;;;;;;;;;;;10.00;99.90;;;;;;5063412;28;20354;-73
2022/04/10 10:48:50;;;;;;;;;;;9.60;99.90;;;;;;5064328;28;19943;-72
2022/04/10 10:51:18;;;;;;;;;;;9.40;99.90;;;;;;5065944;28;19928;-72
2022/04/10 10:53:45;;;;;;;;;;;9.10;99.90;;;;;;5063765;28;19924;-73
2022/04/10 10:56:17;;;;;;;;;;;8.50;99.90;;;;;;5082417;28;19998;-73
2022/04/10 10:59:23;;;;;;;;;;;8.00;99.90;;;;;;5060635;28;19932;-74
2022/04/10 11:01:52;;;;;;;;;;;7.90;99.90;;;;;;5060291;28;19927;-72
2022/04/10 11:04:20;;;;;;;;;;;8.50;99.90;;;;;;5068341;28;20375;-73
2022/04/10 11:06:50;;;;;;;;;;;9.80;99.90;;;;;;5067136;28;19946;-73
2022/04/10 11:09:23;;;;;;;;;;;11.10;99.90;;;;;;5064290;28;20510;-73
2022/04/10 11:11:50;;;;;;;;;;;12.20;99.90;;;;;;5095157;28;19928;-73
2022/04/10 11:14:34;;;;;;;;;;;12.60;99.90;;;;;;5062482;28;19928;-73
2022/04/10 11:17:16;;;;;;;;;;;12.20;99.90;;;;;;5060758;28;19943;-71
2022/04/10 11:19:44;;;;;;;;;;;13.00;99.90;;;;;;5064690;28;19932;-72
2022/04/10 11:22:18;;;;;;;;;;;13.30;99.90;;;;;;5069488;28;19963;-73
2022/04/10 11:24:45;;;;;;;;;;;12.80;99.90;;;;;;5064431;28;19921;-73
2022/04/10 11:27:35;;;;;;;;;;;13.10;99.90;;;;;;5065594;28;19956;-73
2022/04/10 11:30:03;;;;;;;;;;;12.60;99.90;;;;;;5063991;28;19924;-73
2022/04/10 11:32:39;;;;;;;;;;;11.60;99.90;;;;;;5057603;28;20325;-73
2022/04/10 11:35:12;;;;;;;;;;;11.50;99.90;;;;;;5098292;28;19920;-75
2022/04/10 11:37:39;;;;;;;;;;;11.70;99.90;;;;;;5065447;28;19920;-73
2022/04/10 11:40:10;;;;;;;;;;;11.30;99.90;;;;;;5063748;28;19919;-72
2022/04/10 11:42:37;;;;;;;;;;;10.60;99.90;;;;;;5057056;28;20071;-72
2022/04/10 11:45:08;;;;;;;;;;;10.00;99.90;;;;;;5064553;28;19935;-73
2022/04/10 11:47:35;;;;;;;;;;;9.90;99.90;;;;;;5059557;28;19936;-72
2022/04/10 11:50:02;;;;;;;;;;;9.90;99.90;;;;;;5061027;28;20387;-72
2022/04/10 11:52:29;;;;;;;;;;;9.80;99.90;;;;;;5065472;28;19920;-73
2022/04/10 11:54:55;;;;;;;;;;;9.50;99.90;;;;;;5063433;28;19939;-72
2022/04/10 11:57:23;;;;;;;;;;;9.30;99.90;;;;;;5062124;28;19928;-74
2022/04/10 11:59:50;;;;;;;;;;;9.10;99.90;;;;;;5063193;28;19927;-72
2022/04/10 12:02:17;;;;;;;;;;;9.40;99.90;;;;;;5063276;28;19983;-74
2022/04/10 12:04:44;;;;;;;;;;;10.50;99.90;;;;;;5060328;28;19921;-73
2022/04/10 12:07:16;;;;;;;;;;;11.70;99.90;;;;;;5056668;28;20032;-71
2022/04/10 12:09:43;;;;;;;;;;;12.80;99.90;;;;;;5054195;28;19928;-73
2022/04/10 12:12:10;;;;;;;;;;;13.90;99.90;;;;;;5056674;28;19932;-72
2022/04/10 12:14:38;;;;;;;;;;;14.80;99.90;;;;;;5064508;28;19924;-72
2022/04/10 12:17:11;;;;;;;;;;;15.60;99.90;;;;;;5059837;28;20362;-72
2022/04/10 12:19:38;;;;;;;;;;;14.80;99.90;;;;;;5059029;28;19927;-72
2022/04/10 12:22:06;;;;;;;;;;;14.50;99.90;;;;;;5064810;28;20028;-74
2022/04/10 12:24:38;;;;;;;;;;;13.50;99.90;;;;;;5060545;28;20033;-73
2022/04/10 12:27:06;;;;;;;;;;;12.50;99.90;;;;;;5063399;28;20395;-73
2022/04/10 12:29:34;;;;;;;;;;;12.00;99.90;;;;;;5060808;28;19966;-73
2022/04/10 12:32:01;;;;;;;;;;;12.10;99.90;;;;;;5060438;28;19928;-74
2022/04/10 12:34:35;;;;;;;;;;;12.50;99.90;;;;;;5098209;28;20015;-73
2022/04/10 12:37:08;;;;;;;;;;;13.00;99.90;;;;;;5063582;28;20057;-72
2022/04/10 12:39:35;;;;;;;;;;;13.50;99.90;;;;;;5060597;28;19920;-72
2022/04/10 12:42:03;;;;;;;;;;;13.50;99.90;;;;;;5062674;28;19947;-73
2022/04/10 12:44:31;;;;;;;;;;;13.50;99.90;;;;;;5061137;28;19935;-73
2022/04/10 12:46:57;;;;;;;;;;;14.10;99.90;;;;;;5064238;28;20302;-71
2022/04/10 12:49:26;;;;;;;;;;;14.60;99.90;;;;;;5058401;28;19970;-73
2022/04/10 12:51:55;;;;;;;;;;;14.70;99.90;;;;;;5062369;28;19926;-73
2022/04/10 12:54:38;;;;;;;;;;;14.60;99.90;;;;;;5062438;28;19924;-73
2022/04/10 12:57:06;;;;;;;;;;;14.60;99.90;;;;;;5055000;28;19946;-73
2022/04/10 12:59:44;;;;;;;;;;;14.10;99.90;;;;;;5060547;28;19978;-73
2022/04/10 13:02:24;;;;;;;;;;;13.50;99.90;;;;;;5065364;28;19924;-73
2022/04/10 13:04:54;;;;;;;;;;;13.90;99.90;;;;;;5063622;28;19929;-73
2022/04/10 13:07:21;;;;;;;;;;;14.00;99.90;;;;;;5065865;28;19943;-73
2022/04/10 13:10:05;;;;;;;;;;;13.40;99.90;;;;;;5063112;28;19989;-73
2022/04/10 13:12:38;;;;;;;;;;;13.60;99.90;;;;;;5057051;28;19927;-73
2022/04/10 13:15:08;;;;;;;;;;;14.10;99.90;;;;;;5063705;28;20189;-73
2022/04/10 13:17:36;;;;;;;;;;;14.60;99.90;;;;;;5057205;28;19927;-72
2022/04/10 13:20:07;;;;;;;;;;;14.80;99.90;;;;;;5065302;28;19921;-73
2022/04/10 13:22:34;;;;;;;;;;;14.70;99.90;;;;;;5060345;28;19924;-73
2022/04/10 13:25:01;;;;;;;;;;;14.60;99.90;;;;;;5063776;28;19921;-73
2022/04/10 13:27:27;;;;;;;;;;;14.20;99.90;;;;;;5083100;28;19931;-73
2022/04/10 13:29:54;;;;;;;;;;;13.40;99.90;;;;;;5068767;28;19927;-73
2022/04/10 13:32:21;;;;;;;;;;;12.50;99.90;;;;;;5068148;28;19927;-73
2022/04/10 13:34:48;;;;;;;;;;;12.00;99.90;;;;;;5068519;28;19924;-73
2022/04/10 13:37:15;;;;;;;;;;;12.20;99.90;;;;;;5071163;28;20372;-73
2022/04/10 13:39:41;;;;;;;;;;;12.30;99.90;;;;;;5068796;28;20011;-73
2022/04/10 13:42:08;;;;;;;;;;;12.50;99.90;;;;;;5069580;28;19921;-73
2022/04/10 13:44:37;;;;;;;;;;;12.40;99.90;;;;;;5071030;28;19931;-72
2022/04/10 13:47:10;;;;;;;;;;;12.10;99.90;;;;;;5071206;28;19924;-72
2022/04/10 13:49:39;;;;;;;;;;;11.90;99.90;;;;;;5065948;28;19930;-73
2022/04/10 13:52:06;;;;;;;;;;;12.00;99.90;;;;;;5064885;28;19927;-73
2022/04/10 13:54:35;;;;;;;;;;;12.30;99.90;;;;;;5059112;28;21400;-73
2022/04/10 13:57:02;;;;;;;;;;;12.80;99.90;;;;;;5060379;28;19935;-73
2022/04/10 13:59:28;;;;;;;;;;;13.30;99.90;;;;;;5067594;28;19928;-73
2022/04/10 14:01:55;;;;;;;;;;;13.40;99.90;;;;;;5069220;28;19951;-73
2022/04/10 14:04:22;;;;;;;;;;;13.70;99.90;;;;;;5063561;28;19926;-73
2022/04/10 14:06:49;;;;;;;;;;;14.60;99.90;;;;;;5067741;28;20038;-73
2022/04/10 14:09:15;;;;;;;;;;;15.60;99.90;;;;;;5066088;28;19920;-73
2022/04/10 14:11:53;;;;;;;;;;;16.40;99.90;;;;;;5062317;28;19920;-72
2022/04/10 14:14:20;;;;;;;;;;;17.40;99.90;;;;;;5066999;28;19999;-72
2022/04/10 14:16:46;;;;;;;;;;;18.00;99.90;;;;;;5065803;28;19920;-72
2022/04/10 14:19:13;;;;;;;;;;;18.30;99.40;;;;;;5064013;28;19928;-73
2022/04/10 14:21:40;;;;;;;;;;;18.20;97.90;;;;;;5066496;28;19927;-73
2022/04/10 14:24:07;;;;;;;;;;;17.30;97.60;;;;;;5063933;28;19929;-73
2022/04/10 14:26:33;;;;;;;;;;;17.90;98.90;;;;;;5071079;28;20398;-73
2022/04/10 14:29:00;;;;;;;;;;;17.70;98.50;;;;;;5062944;28;20018;-74
2022/04/10 14:31:27;;;;;;;;;;;17.60;98.60;;;;;;5067069;28;19939;-71
2022/04/10 14:33:54;;;;;;;;;;;18.80;98.30;;;;;;5064061;28;20391;-73
2022/04/10 14:36:20;;;;;;;;;;;19.80;96.80;;;;;;5064484;28;21395;-73